sensor_id;sensor_type;location;lat;lon;timestamp;P1;durP1;ratioP1;P2;durP2;ratioP2
13309;SDS011;6723;48.256;16.402;2024-01-30T00:02:08;17.17;;;9.43;;
13309;SDS011;6723;48.256;16.402;2024-01-30T00:04:34;16.70;;;10.17;;
13309;SDS011;6723;48.256;16.402;2024-01-30T00:07:00;16.47;;;10.50;;
13309;SDS011;6723;48.256;16.402;2024-01-30T00:09:26;15.90;;;9.67;;
13309;SDS011;6723;48.256;16.402;2024-01-30T00:11:51;14.97;;;9.13;;
13309;SDS011;6723;48.256;16.402;2024-01-30T00:14:17;15.37;;;9.87;;
13309;SDS011;6723;48.256;16.402;2024-01-30T00:16:44;19.20;;;10.80;;
13309;SDS011;6723;48.256;16.402;2024-01-30T00:19:10;16.90;;;11.40;;
13309;SDS011;6723;48.256;16.402;2024-01-30T00:21:36;20.40;;;9.30;;
13309;SDS011;6723;48.256;16.402;2024-01-30T00:24:02;17.70;;;10.93;;
13309;SDS011;6723;48.256;16.402;2024-01-30T00:26:28;15.97;;;10.20;;
13309;SDS011;6723;48.256;16.402;2024-01-30T00:28:54;17.03;;;9.87;;
13309;SDS011;6723;48.256;16.402;2024-01-30T00:31:20;17.07;;;10.03;;
13309;SDS011;6723;48.256;16.402;2024-01-30T00:33:46;17.70;;;10.50;;
13309;SDS011;6723;48.256;16.402;2024-01-30T00:36:11;14.37;;;9.87;;
13309;SDS011;6723;48.256;16.402;2024-01-30T00:38:37;16.60;;;10.43;;
13309;SDS011;6723;48.256;16.402;2024-01-30T00:41:03;15.87;;;9.70;;
13309;SDS011;6723;48.256;16.402;2024-01-30T00:43:29;15.43;;;10.80;;
13309;SDS011;6723;48.256;16.402;2024-01-30T00:45:56;15.10;;;11.10;;
13309;SDS011;6723;48.256;16.402;2024-01-30T00:48:23;15.33;;;9.50;;
13309;SDS011;6723;48.256;16.402;2024-01-30T00:50:48;15.33;;;10.10;;
13309;SDS011;6723;48.256;16.402;2024-01-30T00:53:14;15.20;;;10.03;;
13309;SDS011;6723;48.256;16.402;2024-01-30T00:55:40;16.93;;;11.07;;
13309;SDS011;6723;48.256;16.402;2024-01-30T00:58:06;16.43;;;9.83;;
13309;SDS011;6723;48.256;16.402;2024-01-30T01:00:33;16.90;;;10.03;;
13309;SDS011;6723;48.256;16.402;2024-01-30T01:02:59;15.07;;;10.37;;
13309;SDS011;6723;48.256;16.402;2024-01-30T01:05:25;15.17;;;9.43;;
13309;SDS011;6723;48.256;16.402;2024-01-30T01:07:51;15.00;;;9.80;;
13309;SDS011;6723;48.256;16.402;2024-01-30T01:10:17;17.20;;;11.03;;
13309;SDS011;6723;48.256;16.402;2024-01-30T01:12:43;18.33;;;10.50;;
13309;SDS011;6723;48.256;16.402;2024-01-30T01:15:09;17.47;;;11.27;;
13309;SDS011;6723;48.256;16.402;2024-01-30T01:17:36;18.00;;;10.67;;
13309;SDS011;6723;48.256;16.402;2024-01-30T01:20:02;16.03;;;10.07;;
13309;SDS011;6723;48.256;16.402;2024-01-30T01:22:30;16.83;;;10.80;;
13309;SDS011;6723;48.256;16.402;2024-01-30T01:24:56;15.80;;;10.80;;
13309;SDS011;6723;48.256;16.402;2024-01-30T01:27:22;15.43;;;10.27;;
13309;SDS011;6723;48.256;16.402;2024-01-30T01:29:52;16.33;;;10.70;;
13309;SDS011;6723;48.256;16.402;2024-01-30T01:32:18;15.17;;;10.10;;
13309;SDS011;6723;48.256;16.402;2024-01-30T01:34:44;14.93;;;10.70;;
13309;SDS011;6723;48.256;16.402;2024-01-30T01:37:09;15.93;;;10.33;;
13309;SDS011;6723;48.256;16.402;2024-01-30T01:39:35;17.40;;;10.87;;
13309;SDS011;6723;48.256;16.402;2024-01-30T01:42:01;16.77;;;11.27;;
13309;SDS011;6723;48.256;16.402;2024-01-30T01:44:27;16.63;;;9.90;;
13309;SDS011;6723;48.256;16.402;2024-01-30T01:46:54;15.83;;;10.10;;
13309;SDS011;6723;48.256;16.402;2024-01-30T01:49:21;17.50;;;10.00;;
13309;SDS011;6723;48.256;16.402;2024-01-30T01:51:48;19.10;;;10.73;;
13309;SDS011;6723;48.256;16.402;2024-01-30T01:54:15;15.43;;;9.40;;
13309;SDS011;6723;48.256;16.402;2024-01-30T01:56:42;19.67;;;10.80;;
13309;SDS011;6723;48.256;16.402;2024-01-30T01:59:11;17.17;;;10.27;;
13309;SDS011;6723;48.256;16.402;2024-01-30T02:01:37;18.77;;;10.80;;
13309;SDS011;6723;48.256;16.402;2024-01-30T02:04:04;17.53;;;10.73;;
13309;SDS011;6723;48.256;16.402;2024-01-30T02:06:30;15.97;;;10.30;;
13309;SDS011;6723;48.256;16.402;2024-01-30T02:08:57;17.87;;;10.60;;
13309;SDS011;6723;48.256;16.402;2024-01-30T02:11:23;15.27;;;10.63;;
13309;SDS011;6723;48.256;16.402;2024-01-30T02:13:49;14.90;;;10.20;;
13309;SDS011;6723;48.256;16.402;2024-01-30T02:16:15;18.00;;;11.03;;
13309;SDS011;6723;48.256;16.402;2024-01-30T02:18:44;16.83;;;10.10;;
13309;SDS011;6723;48.256;16.402;2024-01-30T02:21:12;15.57;;;10.03;;
13309;SDS011;6723;48.256;16.402;2024-01-30T02:23:42;14.90;;;10.27;;
13309;SDS011;6723;48.256;16.402;2024-01-30T02:26:10;14.97;;;9.97;;
13309;SDS011;6723;48.256;16.402;2024-01-30T02:28:37;16.07;;;10.30;;
13309;SDS011;6723;48.256;16.402;2024-01-30T02:31:03;18.17;;;11.03;;
13309;SDS011;6723;48.256;16.402;2024-01-30T02:33:29;15.43;;;10.53;;
13309;SDS011;6723;48.256;16.402;2024-01-30T02:35:55;16.57;;;10.63;;
13309;SDS011;6723;48.256;16.402;2024-01-30T02:38:20;17.90;;;10.43;;
13309;SDS011;6723;48.256;16.402;2024-01-30T02:40:46;17.10;;;10.67;;
13309;SDS011;6723;48.256;16.402;2024-01-30T02:43:12;15.70;;;10.07;;
13309;SDS011;6723;48.256;16.402;2024-01-30T02:45:38;15.17;;;10.07;;
13309;SDS011;6723;48.256;16.402;2024-01-30T02:48:04;18.70;;;10.70;;
13309;SDS011;6723;48.256;16.402;2024-01-30T02:50:30;16.53;;;10.10;;
13309;SDS011;6723;48.256;16.402;2024-01-30T02:52:56;15.83;;;10.07;;
13309;SDS011;6723;48.256;16.402;2024-01-30T02:55:21;16.37;;;10.53;;
13309;SDS011;6723;48.256;16.402;2024-01-30T02:57:47;17.13;;;10.53;;
13309;SDS011;6723;48.256;16.402;2024-01-30T03:00:13;15.67;;;9.40;;
13309;SDS011;6723;48.256;16.402;2024-01-30T03:02:39;16.50;;;10.60;;
13309;SDS011;6723;48.256;16.402;2024-01-30T03:05:05;16.03;;;11.00;;
13309;SDS011;6723;48.256;16.402;2024-01-30T03:07:33;15.07;;;10.07;;
13309;SDS011;6723;48.256;16.402;2024-01-30T03:09:59;16.90;;;10.80;;
13309;SDS011;6723;48.256;16.402;2024-01-30T03:12:26;17.43;;;9.87;;
13309;SDS011;6723;48.256;16.402;2024-01-30T03:14:51;19.53;;;11.53;;
13309;SDS011;6723;48.256;16.402;2024-01-30T03:17:17;17.13;;;10.63;;
13309;SDS011;6723;48.256;16.402;2024-01-30T03:19:43;17.40;;;9.07;;
13309;SDS011;6723;48.256;16.402;2024-01-30T03:22:09;15.30;;;9.73;;
13309;SDS011;6723;48.256;16.402;2024-01-30T03:24:35;17.60;;;11.10;;
13309;SDS011;6723;48.256;16.402;2024-01-30T03:27:01;21.43;;;11.73;;
13309;SDS011;6723;48.256;16.402;2024-01-30T03:29:27;19.47;;;11.50;;
13309;SDS011;6723;48.256;16.402;2024-01-30T03:31:52;17.30;;;10.93;;
13309;SDS011;6723;48.256;16.402;2024-01-30T03:34:18;16.07;;;11.10;;
13309;SDS011;6723;48.256;16.402;2024-01-30T03:36:44;19.43;;;11.70;;
13309;SDS011;6723;48.256;16.402;2024-01-30T03:39:10;16.57;;;10.37;;
13309;SDS011;6723;48.256;16.402;2024-01-30T03:41:36;15.73;;;11.00;;
13309;SDS011;6723;48.256;16.402;2024-01-30T03:44:02;16.63;;;11.50;;
13309;SDS011;6723;48.256;16.402;2024-01-30T03:46:27;18.53;;;11.50;;
13309;SDS011;6723;48.256;16.402;2024-01-30T03:48:53;17.23;;;11.33;;
13309;SDS011;6723;48.256;16.402;2024-01-30T03:51:19;19.47;;;11.80;;
13309;SDS011;6723;48.256;16.402;2024-01-30T03:53:45;16.47;;;11.23;;
13309;SDS011;6723;48.256;16.402;2024-01-30T03:56:13;16.30;;;11.87;;
13309;SDS011;6723;48.256;16.402;2024-01-30T03:58:39;17.77;;;11.83;;
13309;SDS011;6723;48.256;16.402;2024-01-30T04:01:06;19.77;;;12.23;;
13309;SDS011;6723;48.256;16.402;2024-01-30T04:03:33;17.33;;;11.17;;
13309;SDS011;6723;48.256;16.402;2024-01-30T04:05:58;16.67;;;12.10;;
13309;SDS011;6723;48.256;16.402;2024-01-30T04:08:24;17.07;;;11.10;;
13309;SDS011;6723;48.256;16.402;2024-01-30T04:10:50;18.83;;;12.73;;
13309;SDS011;6723;48.256;16.402;2024-01-30T04:13:16;15.13;;;10.80;;
13309;SDS011;6723;48.256;16.402;2024-01-30T04:15:42;17.23;;;11.37;;
13309;SDS011;6723;48.256;16.402;2024-01-30T04:18:07;17.67;;;11.70;;
13309;SDS011;6723;48.256;16.402;2024-01-30T04:20:33;19.37;;;12.00;;
13309;SDS011;6723;48.256;16.402;2024-01-30T04:22:59;21.17;;;11.47;;
13309;SDS011;6723;48.256;16.402;2024-01-30T04:25:25;20.43;;;12.80;;
13309;SDS011;6723;48.256;16.402;2024-01-30T04:27:51;20.97;;;12.03;;
13309;SDS011;6723;48.256;16.402;2024-01-30T04:30:17;18.87;;;11.33;;
13309;SDS011;6723;48.256;16.402;2024-01-30T04:32:43;17.60;;;11.83;;
13309;SDS011;6723;48.256;16.402;2024-01-30T04:35:09;18.97;;;10.13;;
13309;SDS011;6723;48.256;16.402;2024-01-30T04:37:35;20.23;;;12.80;;
13309;SDS011;6723;48.256;16.402;2024-01-30T04:40:01;21.10;;;13.27;;
13309;SDS011;6723;48.256;16.402;2024-01-30T04:42:28;20.43;;;12.40;;
13309;SDS011;6723;48.256;16.402;2024-01-30T04:44:54;21.03;;;12.20;;
13309;SDS011;6723;48.256;16.402;2024-01-30T04:47:19;17.53;;;11.83;;
13309;SDS011;6723;48.256;16.402;2024-01-30T04:49:45;19.10;;;12.33;;
13309;SDS011;6723;48.256;16.402;2024-01-30T04:52:11;18.77;;;11.83;;
13309;SDS011;6723;48.256;16.402;2024-01-30T04:54:37;19.17;;;11.83;;
13309;SDS011;6723;48.256;16.402;2024-01-30T04:57:03;17.10;;;11.93;;
13309;SDS011;6723;48.256;16.402;2024-01-30T04:59:30;19.17;;;11.67;;
13309;SDS011;6723;48.256;16.402;2024-01-30T05:01:56;19.20;;;12.37;;
13309;SDS011;6723;48.256;16.402;2024-01-30T05:04:22;19.63;;;11.60;;
13309;SDS011;6723;48.256;16.402;2024-01-30T05:06:47;21.10;;;12.67;;
13309;SDS011;6723;48.256;16.402;2024-01-30T05:09:13;17.97;;;12.00;;
13309;SDS011;6723;48.256;16.402;2024-01-30T05:11:40;20.37;;;12.60;;
13309;SDS011;6723;48.256;16.402;2024-01-30T05:14:06;19.00;;;11.57;;
13309;SDS011;6723;48.256;16.402;2024-01-30T05:16:34;22.23;;;12.50;;
13309;SDS011;6723;48.256;16.402;2024-01-30T05:19:00;17.23;;;10.97;;
13309;SDS011;6723;48.256;16.402;2024-01-30T05:21:26;17.87;;;11.13;;
13309;SDS011;6723;48.256;16.402;2024-01-30T05:23:51;19.53;;;12.57;;
13309;SDS011;6723;48.256;16.402;2024-01-30T05:26:17;20.30;;;11.83;;
13309;SDS011;6723;48.256;16.402;2024-01-30T05:28:43;19.10;;;11.87;;
13309;SDS011;6723;48.256;16.402;2024-01-30T05:31:13;17.73;;;11.43;;
13309;SDS011;6723;48.256;16.402;2024-01-30T05:33:39;19.53;;;12.13;;
13309;SDS011;6723;48.256;16.402;2024-01-30T05:36:06;22.23;;;12.67;;
13309;SDS011;6723;48.256;16.402;2024-01-30T05:38:32;19.87;;;12.73;;
13309;SDS011;6723;48.256;16.402;2024-01-30T05:40:58;19.30;;;12.57;;
13309;SDS011;6723;48.256;16.402;2024-01-30T05:43:24;18.50;;;11.80;;
13309;SDS011;6723;48.256;16.402;2024-01-30T05:45:50;17.87;;;11.53;;
13309;SDS011;6723;48.256;16.402;2024-01-30T05:48:17;19.40;;;12.13;;
13309;SDS011;6723;48.256;16.402;2024-01-30T05:50:43;19.77;;;12.17;;
13309;SDS011;6723;48.256;16.402;2024-01-30T05:53:10;19.13;;;11.90;;
13309;SDS011;6723;48.256;16.402;2024-01-30T05:55:36;19.37;;;11.57;;
13309;SDS011;6723;48.256;16.402;2024-01-30T05:58:02;16.70;;;11.30;;
13309;SDS011;6723;48.256;16.402;2024-01-30T06:00:29;20.75;;;12.35;;
13309;SDS011;6723;48.256;16.402;2024-01-30T06:02:55;19.00;;;11.93;;
13309;SDS011;6723;48.256;16.402;2024-01-30T06:05:21;19.50;;;12.57;;
13309;SDS011;6723;48.256;16.402;2024-01-30T06:07:47;20.60;;;11.73;;
13309;SDS011;6723;48.256;16.402;2024-01-30T06:10:12;22.77;;;12.40;;
13309;SDS011;6723;48.256;16.402;2024-01-30T06:12:39;21.03;;;12.13;;
13309;SDS011;6723;48.256;16.402;2024-01-30T06:15:05;18.30;;;11.93;;
13309;SDS011;6723;48.256;16.402;2024-01-30T06:17:31;18.03;;;11.27;;
13309;SDS011;6723;48.256;16.402;2024-01-30T06:19:58;18.37;;;11.40;;
13309;SDS011;6723;48.256;16.402;2024-01-30T06:22:24;18.77;;;11.97;;
13309;SDS011;6723;48.256;16.402;2024-01-30T06:24:50;17.30;;;11.53;;
13309;SDS011;6723;48.256;16.402;2024-01-30T06:27:16;18.10;;;11.80;;
13309;SDS011;6723;48.256;16.402;2024-01-30T06:29:43;18.87;;;12.33;;
13309;SDS011;6723;48.256;16.402;2024-01-30T06:32:09;18.73;;;11.83;;
13309;SDS011;6723;48.256;16.402;2024-01-30T06:34:35;19.77;;;11.67;;
13309;SDS011;6723;48.256;16.402;2024-01-30T06:37:01;23.40;;;11.37;;
13309;SDS011;6723;48.256;16.402;2024-01-30T06:39:27;19.23;;;11.17;;
13309;SDS011;6723;48.256;16.402;2024-01-30T06:41:53;17.37;;;11.50;;
13309;SDS011;6723;48.256;16.402;2024-01-30T06:44:19;17.87;;;11.23;;
13309;SDS011;6723;48.256;16.402;2024-01-30T06:46:44;19.93;;;11.90;;
13309;SDS011;6723;48.256;16.402;2024-01-30T06:49:10;18.87;;;11.63;;
13309;SDS011;6723;48.256;16.402;2024-01-30T06:51:36;21.60;;;11.80;;
13309;SDS011;6723;48.256;16.402;2024-01-30T06:54:02;18.23;;;11.93;;
13309;SDS011;6723;48.256;16.402;2024-01-30T06:56:28;17.90;;;11.37;;
13309;SDS011;6723;48.256;16.402;2024-01-30T06:58:54;19.23;;;11.53;;
13309;SDS011;6723;48.256;16.402;2024-01-30T07:01:19;18.23;;;11.80;;
13309;SDS011;6723;48.256;16.402;2024-01-30T07:03:46;20.83;;;12.13;;
13309;SDS011;6723;48.256;16.402;2024-01-30T07:06:12;16.93;;;10.90;;
13309;SDS011;6723;48.256;16.402;2024-01-30T07:08:38;17.70;;;11.63;;
13309;SDS011;6723;48.256;16.402;2024-01-30T07:11:04;19.10;;;11.90;;
13309;SDS011;6723;48.256;16.402;2024-01-30T07:13:31;22.47;;;11.93;;
13309;SDS011;6723;48.256;16.402;2024-01-30T07:15:57;17.67;;;11.73;;
13309;SDS011;6723;48.256;16.402;2024-01-30T07:18:23;15.97;;;10.37;;
13309;SDS011;6723;48.256;16.402;2024-01-30T07:20:49;16.83;;;11.30;;
13309;SDS011;6723;48.256;16.402;2024-01-30T07:23:15;16.63;;;10.90;;
13309;SDS011;6723;48.256;16.402;2024-01-30T07:25:43;17.80;;;11.87;;
13309;SDS011;6723;48.256;16.402;2024-01-30T07:28:18;16.13;;;10.83;;
13309;SDS011;6723;48.256;16.402;2024-01-30T07:30:44;17.50;;;11.53;;
13309;SDS011;6723;48.256;16.402;2024-01-30T07:33:10;18.90;;;11.47;;
13309;SDS011;6723;48.256;16.402;2024-01-30T07:35:36;16.57;;;10.63;;
13309;SDS011;6723;48.256;16.402;2024-01-30T07:38:02;19.37;;;11.77;;
13309;SDS011;6723;48.256;16.402;2024-01-30T07:40:28;17.73;;;11.17;;
13309;SDS011;6723;48.256;16.402;2024-01-30T07:42:54;18.03;;;11.10;;
13309;SDS011;6723;48.256;16.402;2024-01-30T07:45:20;20.83;;;11.87;;
13309;SDS011;6723;48.256;16.402;2024-01-30T07:47:50;17.73;;;11.17;;
13309;SDS011;6723;48.256;16.402;2024-01-30T07:50:17;16.53;;;10.80;;
13309;SDS011;6723;48.256;16.402;2024-01-30T07:52:44;15.77;;;11.13;;
13309;SDS011;6723;48.256;16.402;2024-01-30T07:58:13;19.97;;;11.00;;
13309;SDS011;6723;48.256;16.402;2024-01-30T08:00:39;15.53;;;10.60;;
13309;SDS011;6723;48.256;16.402;2024-01-30T08:03:05;16.37;;;10.67;;
13309;SDS011;6723;48.256;16.402;2024-01-30T08:05:31;16.53;;;10.83;;
13309;SDS011;6723;48.256;16.402;2024-01-30T08:07:57;18.63;;;11.20;;
13309;SDS011;6723;48.256;16.402;2024-01-30T08:10:23;16.43;;;11.27;;
13309;SDS011;6723;48.256;16.402;2024-01-30T08:12:49;19.20;;;11.80;;
13309;SDS011;6723;48.256;16.402;2024-01-30T08:15:15;17.07;;;11.33;;
13309;SDS011;6723;48.256;16.402;2024-01-30T08:17:41;17.30;;;12.20;;
13309;SDS011;6723;48.256;16.402;2024-01-30T08:20:06;17.70;;;11.90;;
13309;SDS011;6723;48.256;16.402;2024-01-30T08:22:33;16.63;;;11.60;;
13309;SDS011;6723;48.256;16.402;2024-01-30T08:25:00;17.83;;;11.90;;
13309;SDS011;6723;48.256;16.402;2024-01-30T08:27:26;16.53;;;11.67;;
13309;SDS011;6723;48.256;16.402;2024-01-30T08:29:51;17.27;;;11.90;;
13309;SDS011;6723;48.256;16.402;2024-01-30T08:32:17;16.20;;;11.70;;
13309;SDS011;6723;48.256;16.402;2024-01-30T08:34:43;16.87;;;11.73;;
13309;SDS011;6723;48.256;16.402;2024-01-30T08:37:09;15.83;;;10.97;;
13309;SDS011;6723;48.256;16.402;2024-01-30T08:39:35;14.80;;;11.90;;
13309;SDS011;6723;48.256;16.402;2024-01-30T08:42:01;15.30;;;11.43;;
13309;SDS011;6723;48.256;16.402;2024-01-30T08:44:26;16.20;;;11.97;;
13309;SDS011;6723;48.256;16.402;2024-01-30T08:46:52;16.10;;;12.53;;
13309;SDS011;6723;48.256;16.402;2024-01-30T08:49:19;17.00;;;11.93;;
13309;SDS011;6723;48.256;16.402;2024-01-30T08:51:45;20.70;;;13.17;;
13309;SDS011;6723;48.256;16.402;2024-01-30T08:54:11;14.80;;;12.10;;
13309;SDS011;6723;48.256;16.402;2024-01-30T08:56:37;17.47;;;12.83;;
13309;SDS011;6723;48.256;16.402;2024-01-30T08:59:02;15.10;;;11.93;;
13309;SDS011;6723;48.256;16.402;2024-01-30T09:01:28;17.13;;;13.10;;
13309;SDS011;6723;48.256;16.402;2024-01-30T09:03:54;17.27;;;12.63;;
13309;SDS011;6723;48.256;16.402;2024-01-30T09:06:20;17.37;;;12.20;;
13309;SDS011;6723;48.256;16.402;2024-01-30T09:08:46;17.50;;;12.73;;
13309;SDS011;6723;48.256;16.402;2024-01-30T09:11:12;15.50;;;12.43;;
13309;SDS011;6723;48.256;16.402;2024-01-30T09:13:38;17.07;;;12.90;;
13309;SDS011;6723;48.256;16.402;2024-01-30T09:16:05;14.43;;;12.50;;
13309;SDS011;6723;48.256;16.402;2024-01-30T09:18:31;15.63;;;12.67;;
13309;SDS011;6723;48.256;16.402;2024-01-30T09:20:57;15.80;;;12.60;;
13309;SDS011;6723;48.256;16.402;2024-01-30T09:23:23;14.10;;;12.60;;
13309;SDS011;6723;48.256;16.402;2024-01-30T09:25:49;15.13;;;11.67;;
13309;SDS011;6723;48.256;16.402;2024-01-30T09:28:15;15.40;;;11.97;;
13309;SDS011;6723;48.256;16.402;2024-01-30T09:30:44;15.50;;;12.10;;
13309;SDS011;6723;48.256;16.402;2024-01-30T09:33:09;13.93;;;12.23;;
13309;SDS011;6723;48.256;16.402;2024-01-30T09:35:38;18.50;;;11.93;;
13309;SDS011;6723;48.256;16.402;2024-01-30T09:38:04;16.87;;;11.83;;
13309;SDS011;6723;48.256;16.402;2024-01-30T09:40:29;13.83;;;11.63;;
13309;SDS011;6723;48.256;16.402;2024-01-30T09:42:55;14.40;;;11.87;;
13309;SDS011;6723;48.256;16.402;2024-01-30T09:45:23;14.87;;;11.97;;
13309;SDS011;6723;48.256;16.402;2024-01-30T09:47:50;13.03;;;11.27;;
13309;SDS011;6723;48.256;16.402;2024-01-30T09:50:18;15.40;;;12.30;;
13309;SDS011;6723;48.256;16.402;2024-01-30T09:52:44;14.23;;;11.57;;
13309;SDS011;6723;48.256;16.402;2024-01-30T09:55:10;15.73;;;11.57;;
13309;SDS011;6723;48.256;16.402;2024-01-30T09:57:36;15.57;;;11.80;;
13309;SDS011;6723;48.256;16.402;2024-01-30T10:00:02;17.20;;;11.70;;
13309;SDS011;6723;48.256;16.402;2024-01-30T10:02:31;14.90;;;12.07;;
13309;SDS011;6723;48.256;16.402;2024-01-30T10:04:57;14.47;;;11.53;;
13309;SDS011;6723;48.256;16.402;2024-01-30T10:07:23;14.47;;;11.23;;
13309;SDS011;6723;48.256;16.402;2024-01-30T10:09:49;12.77;;;11.23;;
13309;SDS011;6723;48.256;16.402;2024-01-30T10:12:15;15.33;;;12.20;;
13309;SDS011;6723;48.256;16.402;2024-01-30T10:14:42;13.80;;;11.50;;
13309;SDS011;6723;48.256;16.402;2024-01-30T10:17:08;14.17;;;11.87;;
13309;SDS011;6723;48.256;16.402;2024-01-30T10:19:35;14.33;;;10.80;;
13309;SDS011;6723;48.256;16.402;2024-01-30T10:22:02;12.70;;;11.23;;
13309;SDS011;6723;48.256;16.402;2024-01-30T10:24:29;13.80;;;11.17;;
13309;SDS011;6723;48.256;16.402;2024-01-30T10:26:56;16.40;;;10.90;;
13309;SDS011;6723;48.256;16.402;2024-01-30T10:29:22;15.10;;;10.87;;
13309;SDS011;6723;48.256;16.402;2024-01-30T10:32:00;16.93;;;11.53;;
13309;SDS011;6723;48.256;16.402;2024-01-30T10:34:27;16.27;;;11.73;;
13309;SDS011;6723;48.256;16.402;2024-01-30T10:37:15;14.33;;;11.33;;
13309;SDS011;6723;48.256;16.402;2024-01-30T10:39:42;13.40;;;11.07;;
13309;SDS011;6723;48.256;16.402;2024-01-30T10:42:13;16.70;;;11.70;;
13309;SDS011;6723;48.256;16.402;2024-01-30T10:44:44;13.43;;;11.60;;
13309;SDS011;6723;48.256;16.402;2024-01-30T10:47:29;14.23;;;10.93;;
13309;SDS011;6723;48.256;16.402;2024-01-30T10:49:55;16.97;;;11.07;;
13309;SDS011;6723;48.256;16.402;2024-01-30T10:52:25;13.87;;;11.43;;
13309;SDS011;6723;48.256;16.402;2024-01-30T10:54:53;13.63;;;11.53;;
13309;SDS011;6723;48.256;16.402;2024-01-30T10:57:22;15.40;;;11.80;;
13309;SDS011;6723;48.256;16.402;2024-01-30T10:59:49;15.53;;;11.37;;
13309;SDS011;6723;48.256;16.402;2024-01-30T11:02:19;13.20;;;11.17;;
13309;SDS011;6723;48.256;16.402;2024-01-30T11:04:46;13.70;;;11.03;;
13309;SDS011;6723;48.256;16.402;2024-01-30T11:07:24;13.53;;;10.77;;
13309;SDS011;6723;48.256;16.402;2024-01-30T11:10:02;14.43;;;11.33;;
13309;SDS011;6723;48.256;16.402;2024-01-30T11:12:29;14.10;;;11.37;;
13309;SDS011;6723;48.256;16.402;2024-01-30T11:15:05;13.33;;;10.90;;
13309;SDS011;6723;48.256;16.402;2024-01-30T11:17:44;15.90;;;11.80;;
13309;SDS011;6723;48.256;16.402;2024-01-30T11:20:20;14.63;;;11.70;;
13309;SDS011;6723;48.256;16.402;2024-01-30T11:22:56;13.03;;;11.20;;
13309;SDS011;6723;48.256;16.402;2024-01-30T11:25:24;12.63;;;10.77;;
13309;SDS011;6723;48.256;16.402;2024-01-30T11:27:54;14.90;;;11.27;;
13309;SDS011;6723;48.256;16.402;2024-01-30T11:30:24;14.43;;;11.03;;
13309;SDS011;6723;48.256;16.402;2024-01-30T11:32:58;17.53;;;11.53;;
13309;SDS011;6723;48.256;16.402;2024-01-30T11:35:37;15.67;;;11.73;;
13309;SDS011;6723;48.256;16.402;2024-01-30T11:38:05;15.97;;;11.43;;
13309;SDS011;6723;48.256;16.402;2024-01-30T11:40:32;16.53;;;10.13;;
13309;SDS011;6723;48.256;16.402;2024-01-30T11:43:00;13.63;;;9.87;;
13309;SDS011;6723;48.256;16.402;2024-01-30T11:45:27;13.33;;;10.40;;
13309;SDS011;6723;48.256;16.402;2024-01-30T11:47:53;15.40;;;10.80;;
13309;SDS011;6723;48.256;16.402;2024-01-30T11:50:20;14.60;;;10.43;;
13309;SDS011;6723;48.256;16.402;2024-01-30T11:52:46;14.43;;;10.33;;
13309;SDS011;6723;48.256;16.402;2024-01-30T11:55:14;13.43;;;10.17;;
13309;SDS011;6723;48.256;16.402;2024-01-30T11:57:41;13.80;;;10.43;;
13309;SDS011;6723;48.256;16.402;2024-01-30T12:00:14;14.40;;;10.70;;
13309;SDS011;6723;48.256;16.402;2024-01-30T12:02:44;14.90;;;9.90;;
13309;SDS011;6723;48.256;16.402;2024-01-30T12:05:14;12.70;;;9.87;;
13309;SDS011;6723;48.256;16.402;2024-01-30T12:07:40;16.77;;;10.17;;
13309;SDS011;6723;48.256;16.402;2024-01-30T12:10:10;15.77;;;9.87;;
13309;SDS011;6723;48.256;16.402;2024-01-30T12:12:39;12.37;;;9.93;;
13309;SDS011;6723;48.256;16.402;2024-01-30T12:15:06;13.77;;;10.43;;
13309;SDS011;6723;48.256;16.402;2024-01-30T12:17:33;13.57;;;10.50;;
13309;SDS011;6723;48.256;16.402;2024-01-30T12:20:03;16.93;;;10.90;;
13309;SDS011;6723;48.256;16.402;2024-01-30T12:25:09;15.57;;;10.73;;
13309;SDS011;6723;48.256;16.402;2024-01-30T12:27:35;15.63;;;10.97;;
13309;SDS011;6723;48.256;16.402;2024-01-30T12:30:05;13.33;;;10.37;;
13309;SDS011;6723;48.256;16.402;2024-01-30T12:32:35;13.70;;;10.23;;
13309;SDS011;6723;48.256;16.402;2024-01-30T12:35:01;15.13;;;10.53;;
13309;SDS011;6723;48.256;16.402;2024-01-30T12:37:29;12.97;;;10.33;;
13309;SDS011;6723;48.256;16.402;2024-01-30T12:39:55;14.00;;;9.70;;
13309;SDS011;6723;48.256;16.402;2024-01-30T12:42:21;13.40;;;9.50;;
13309;SDS011;6723;48.256;16.402;2024-01-30T12:44:48;15.13;;;10.67;;
13309;SDS011;6723;48.256;16.402;2024-01-30T12:47:14;14.33;;;10.50;;
13309;SDS011;6723;48.256;16.402;2024-01-30T12:49:43;15.50;;;10.70;;
13309;SDS011;6723;48.256;16.402;2024-01-30T12:52:13;14.70;;;10.07;;
13309;SDS011;6723;48.256;16.402;2024-01-30T12:54:40;12.83;;;9.40;;
13309;SDS011;6723;48.256;16.402;2024-01-30T12:57:06;14.43;;;10.00;;
13309;SDS011;6723;48.256;16.402;2024-01-30T12:59:32;14.70;;;9.97;;
13309;SDS011;6723;48.256;16.402;2024-01-30T13:01:59;12.30;;;9.93;;
13309;SDS011;6723;48.256;16.402;2024-01-30T13:04:26;15.77;;;10.00;;
13309;SDS011;6723;48.256;16.402;2024-01-30T13:06:53;14.70;;;8.77;;
13309;SDS011;6723;48.256;16.402;2024-01-30T13:09:19;14.03;;;9.87;;
13309;SDS011;6723;48.256;16.402;2024-01-30T13:11:45;13.23;;;10.00;;
13309;SDS011;6723;48.256;16.402;2024-01-30T13:14:11;13.07;;;9.77;;
13309;SDS011;6723;48.256;16.402;2024-01-30T13:16:37;12.20;;;9.27;;
13309;SDS011;6723;48.256;16.402;2024-01-30T13:19:03;17.23;;;9.37;;
13309;SDS011;6723;48.256;16.402;2024-01-30T13:21:29;12.50;;;8.47;;
13309;SDS011;6723;48.256;16.402;2024-01-30T13:23:55;12.20;;;8.83;;
13309;SDS011;6723;48.256;16.402;2024-01-30T13:26:21;13.07;;;8.27;;
13309;SDS011;6723;48.256;16.402;2024-01-30T13:28:47;13.13;;;8.47;;
13309;SDS011;6723;48.256;16.402;2024-01-30T13:31:13;12.17;;;8.23;;
13309;SDS011;6723;48.256;16.402;2024-01-30T13:33:39;11.20;;;8.07;;
13309;SDS011;6723;48.256;16.402;2024-01-30T13:36:06;12.00;;;8.20;;
13309;SDS011;6723;48.256;16.402;2024-01-30T13:38:34;12.53;;;8.33;;
13309;SDS011;6723;48.256;16.402;2024-01-30T13:41:00;12.53;;;8.00;;
13309;SDS011;6723;48.256;16.402;2024-01-30T13:43:26;11.50;;;7.50;;
13309;SDS011;6723;48.256;16.402;2024-01-30T13:45:52;12.33;;;8.13;;
13309;SDS011;6723;48.256;16.402;2024-01-30T13:48:19;12.30;;;7.97;;
13309;SDS011;6723;48.256;16.402;2024-01-30T13:50:44;12.20;;;8.03;;
13309;SDS011;6723;48.256;16.402;2024-01-30T13:53:11;10.40;;;7.23;;
13309;SDS011;6723;48.256;16.402;2024-01-30T13:55:37;12.53;;;7.37;;
13309;SDS011;6723;48.256;16.402;2024-01-30T13:58:04;9.47;;;6.77;;
13309;SDS011;6723;48.256;16.402;2024-01-30T14:00:30;12.30;;;7.77;;
13309;SDS011;6723;48.256;16.402;2024-01-30T14:02:56;13.13;;;7.80;;
13309;SDS011;6723;48.256;16.402;2024-01-30T14:05:23;11.80;;;7.87;;
13309;SDS011;6723;48.256;16.402;2024-01-30T14:07:49;15.13;;;7.27;;
13309;SDS011;6723;48.256;16.402;2024-01-30T14:10:16;11.20;;;7.27;;
13309;SDS011;6723;48.256;16.402;2024-01-30T14:12:45;11.80;;;7.37;;
13309;SDS011;6723;48.256;16.402;2024-01-30T14:15:13;10.40;;;7.53;;
13309;SDS011;6723;48.256;16.402;2024-01-30T14:17:40;11.50;;;7.77;;
13309;SDS011;6723;48.256;16.402;2024-01-30T14:20:06;10.60;;;7.23;;
13309;SDS011;6723;48.256;16.402;2024-01-30T14:22:33;10.90;;;7.50;;
13309;SDS011;6723;48.256;16.402;2024-01-30T14:25:00;10.10;;;7.33;;
13309;SDS011;6723;48.256;16.402;2024-01-30T14:27:28;9.47;;;6.97;;